Time;durP1;ratioP1;P1;durP2;ratioP2;P2;SDS_P1;SDS_P2;PMS_P1;PMS_P2;Temp;Humidity;BMP_temperature;BMP_pressure;BME280_temperature;BME280_humidity;BME280_pressure;Samples;Min_cycle;Max_cycle;Signal;HPM_P1;HPM_P2
2021/08/27 00:01:47;;;;;;;0.73;0.50;;;19.50;74.00;;;;;;10451748;28;20194;-64
2021/08/27 00:07:10;;;;;;;0.53;0.40;;;19.50;72.70;;;;;;10473126;28;20220;-64
2021/08/27 00:12:35;;;;;;;0.53;0.43;;;19.60;72.70;;;;;;10450797;28;20220;-64
2021/08/27 00:17:57;;;;;;;0.73;0.53;;;19.50;73.20;;;;;;10450109;28;20216;-64
2021/08/27 00:23:21;;;;;;;0.80;0.50;;;19.50;73.20;;;;;;10450091;28;20669;-65
2021/08/27 00:28:43;;;;;;;0.73;0.47;;;19.60;72.00;;;;;;10451261;28;20560;-65
2021/08/27 00:34:05;;;;;;;0.50;0.30;;;19.60;72.70;;;;;;10458315;28;20225;-66
2021/08/27 00:39:29;;;;;;;0.67;0.40;;;19.50;73.00;;;;;;10458493;28;20201;-65
2021/08/27 00:44:51;;;;;;;0.80;0.50;;;19.60;73.00;;;;;;10457707;28;20209;-62
2021/08/27 00:50:13;;;;;;;0.63;0.50;;;19.60;72.40;;;;;;10457448;28;20193;-65
2021/08/27 00:55:37;;;;;;;0.77;0.50;;;19.50;73.00;;;;;;10426294;28;20646;-65
2021/08/27 01:00:59;;;;;;;1.10;0.30;;;19.50;73.20;;;;;;10456147;28;20600;-66
2021/08/27 01:06:26;;;;;;;0.50;0.30;;;19.50;72.50;;;;;;10498041;28;20610;-65
2021/08/27 01:11:56;;;;;;;0.53;0.40;;;19.60;72.90;;;;;;10478624;28;20292;-64
2021/08/27 01:17:22;;;;;;;0.40;0.40;;;19.50;73.20;;;;;;10456767;28;20217;-64
2021/08/27 01:23:00;;;;;;;0.50;0.40;;;19.50;73.10;;;;;;10455291;28;20696;-65
2021/08/27 01:28:25;;;;;;;0.33;0.30;;;19.60;71.80;;;;;;10466109;28;20193;-65
2021/08/27 01:33:58;;;;;;;0.43;0.40;;;19.50;72.60;;;;;;10496607;28;20599;-66
2021/08/27 01:39:25;;;;;;;0.77;0.60;;;19.50;73.00;;;;;;10461091;28;20205;-63
2021/08/27 01:44:49;;;;;;;0.80;0.40;;;19.50;72.70;;;;;;10414858;28;20585;-65
2021/08/27 01:50:13;;;;;;;0.83;0.60;;;19.60;72.60;;;;;;10413841;28;20224;-65
2021/08/27 01:55:39;;;;;;;1.00;0.50;;;19.50;73.00;;;;;;10444198;28;20217;-65
2021/08/27 02:01:02;;;;;;;1.23;0.50;;;19.50;73.30;;;;;;10455631;28;20576;-64
2021/08/27 02:06:25;;;;;;;0.43;0.40;;;19.50;72.30;;;;;;10484628;22;20324;-66
2021/08/27 02:11:49;;;;;;;0.47;0.40;;;19.50;72.60;;;;;;10481501;28;20610;-66
2021/08/27 02:17:11;;;;;;;0.60;0.40;;;19.50;72.90;;;;;;10496055;28;20219;-68
2021/08/27 02:22:35;;;;;;;0.57;0.47;;;19.50;73.20;;;;;;10495124;28;20189;-66
2021/08/27 02:28:02;;;;;;;0.50;0.50;;;19.60;72.00;;;;;;10494770;28;20718;-67
2021/08/27 02:33:27;;;;;;;0.50;0.37;;;19.60;72.70;;;;;;10493656;28;20639;-66
2021/08/27 02:38:51;;;;;;;0.40;0.30;;;19.50;73.00;;;;;;10494547;28;20275;-63
2021/08/27 02:44:15;;;;;;;0.63;0.50;;;19.50;72.80;;;;;;10493159;28;20219;-67
2021/08/27 02:49:37;;;;;;;0.57;0.50;;;19.50;72.50;;;;;;10492561;28;20189;-66
2021/08/27 02:55:07;;;;;;;0.93;0.40;;;19.50;72.90;;;;;;10493737;28;20216;-66
2021/08/27 03:00:35;;;;;;;0.90;0.40;;;19.50;73.10;;;;;;10500982;28;20197;-65
2021/08/27 03:06:03;;;;;;;0.90;0.50;;;19.50;72.40;;;;;;10493504;28;20216;-67
2021/08/27 03:11:29;;;;;;;0.30;0.30;;;19.50;72.80;;;;;;10503752;28;20670;-67
2021/08/27 03:16:53;;;;;;;0.80;0.40;;;19.50;73.00;;;;;;10534938;28;20215;-66
2021/08/27 03:22:24;;;;;;;0.30;0.30;;;19.50;73.10;;;;;;10535424;28;20606;-68
2021/08/27 03:27:50;;;;;;;0.50;0.50;;;19.60;72.20;;;;;;10535260;28;20219;-66
2021/08/27 03:33:13;;;;;;;0.60;0.50;;;19.60;72.90;;;;;;10534225;28;20239;-66
2021/08/27 03:38:36;;;;;;;1.00;0.60;;;19.50;73.00;;;;;;10533274;28;20222;-67
2021/08/27 03:44:00;;;;;;;0.40;0.40;;;19.50;72.70;;;;;;10535480;28;20192;-66
2021/08/27 03:49:23;;;;;;;0.40;0.40;;;19.60;72.50;;;;;;10507062;28;20218;-66
2021/08/27 03:54:46;;;;;;;0.57;0.50;;;19.60;72.90;;;;;;10513354;28;20227;-68
2021/08/27 04:00:09;;;;;;;0.33;0.30;;;19.50;73.10;;;;;;10506313;28;20668;-66
2021/08/27 04:05:32;;;;;;;0.57;0.57;;;19.60;72.10;;;;;;10495334;28;20217;-67
2021/08/27 04:10:54;;;;;;;0.83;0.50;;;19.60;72.80;;;;;;10504486;28;20666;-66
2021/08/27 04:16:16;;;;;;;0.90;0.73;;;19.60;73.10;;;;;;10541878;28;20571;-67
2021/08/27 04:21:40;;;;;;;0.50;0.50;;;19.50;72.90;;;;;;10540211;28;20211;-67
2021/08/27 04:27:02;;;;;;;0.87;0.43;;;19.60;72.60;;;;;;10539345;28;20214;-66
2021/08/27 04:32:25;;;;;;;1.03;0.67;;;19.60;73.00;;;;;;10504517;28;20203;-67
2021/08/27 04:37:48;;;;;;;0.80;0.50;;;19.60;73.20;;;;;;10499643;28;20698;-67
2021/08/27 04:43:10;;;;;;;0.50;0.40;;;19.60;72.20;;;;;;10499462;28;20185;-67
2021/08/27 04:48:32;;;;;;;0.53;0.43;;;19.70;72.90;;;;;;10498995;28;20220;-66
2021/08/27 04:53:56;;;;;;;1.00;0.63;;;19.60;72.90;;;;;;10514289;28;20693;-67
2021/08/27 04:59:18;;;;;;;1.17;0.40;;;19.60;72.40;;;;;;10548950;28;20211;-65
2021/08/27 05:04:40;;;;;;;1.00;0.73;;;19.70;72.60;;;;;;10517616;28;20683;-66
2021/08/27 05:10:04;;;;;;;0.93;0.63;;;19.60;72.90;;;;;;10512376;28;20663;-67
2021/08/27 05:15:26;;;;;;;0.60;0.43;;;19.60;73.10;;;;;;10500869;28;20307;-66
2021/08/27 05:20:49;;;;;;;1.73;0.60;;;19.70;72.20;;;;;;10496396;28;20751;-67
2021/08/27 05:26:12;;;;;;;0.77;0.60;;;19.60;72.80;;;;;;10495277;28;20216;-67
2021/08/27 05:31:35;;;;;;;0.77;0.50;;;19.60;73.00;;;;;;10496605;28;20709;-64
2021/08/27 05:36:57;;;;;;;0.37;0.37;;;19.60;72.70;;;;;;10495999;28;20224;-66
2021/08/27 05:42:20;;;;;;;0.50;0.50;;;19.70;72.60;;;;;;10496035;28;20188;-66
2021/08/27 05:47:43;;;;;;;0.43;0.43;;;19.60;72.90;;;;;;10486236;28;20244;-67
2021/08/27 05:53:05;;;;;;;0.60;0.60;;;19.60;73.20;;;;;;10519437;28;20198;-66
2021/08/27 05:58:29;;;;;;;1.03;0.53;;;19.60;72.30;;;;;;10524433;28;20213;-66
2021/08/27 06:03:51;;;;;;;0.70;0.57;;;19.60;72.90;;;;;;10496357;28;20192;-65
2021/08/27 06:09:13;;;;;;;0.43;0.43;;;19.60;73.10;;;;;;10494391;28;20197;-67
2021/08/27 06:14:37;;;;;;;1.00;0.70;;;19.50;73.00;;;;;;10461946;28;20758;-64
2021/08/27 06:19:59;;;;;;;0.77;0.60;;;19.60;72.40;;;;;;10495139;28;20694;-67
2021/08/27 06:25:21;;;;;;;0.50;0.50;;;19.60;73.10;;;;;;10495477;28;20208;-66
2021/08/27 06:30:44;;;;;;;0.60;0.40;;;19.50;73.10;;;;;;10494892;28;20204;-67
2021/08/27 06:36:07;;;;;;;0.80;0.70;;;19.60;72.80;;;;;;10494349;28;20606;-67
2021/08/27 06:41:29;;;;;;;0.53;0.40;;;19.60;72.50;;;;;;10487143;28;20200;-66
2021/08/27 06:46:52;;;;;;;0.60;0.50;;;19.60;72.90;;;;;;10500877;28;20685;-65
2021/08/27 06:52:15;;;;;;;0.40;0.40;;;19.60;73.20;;;;;;10495124;28;20196;-66
2021/08/27 06:57:37;;;;;;;1.03;0.70;;;19.60;72.40;;;;;;10533080;28;20234;-65
2021/08/27 07:03:01;;;;;;;0.50;0.43;;;19.60;72.60;;;;;;10534699;28;20198;-65
2021/08/27 07:08:23;;;;;;;1.00;0.50;;;19.60;72.90;;;;;;10534615;28;20223;-66
2021/08/27 07:13:46;;;;;;;0.50;0.50;;;19.60;73.00;;;;;;10499331;28;20796;-65
2021/08/27 07:19:09;;;;;;;0.67;0.50;;;19.60;72.00;;;;;;10493487;28;20204;-65
2021/08/27 07:24:31;;;;;;;0.73;0.67;;;19.60;72.70;;;;;;10493493;28;20588;-66
2021/08/27 07:29:53;;;;;;;0.57;0.50;;;19.60;72.90;;;;;;10493215;28;20195;-65
2021/08/27 07:35:17;;;;;;;0.70;0.43;;;19.60;72.90;;;;;;10491854;28;20223;-66
2021/08/27 07:40:39;;;;;;;1.37;0.70;;;19.60;72.40;;;;;;10488035;28;20196;-65
2021/08/27 07:46:01;;;;;;;0.30;0.30;;;19.60;72.80;;;;;;10492397;28;20216;-66
2021/08/27 07:51:24;;;;;;;0.43;0.43;;;19.60;73.00;;;;;;10497204;28;20204;-65
2021/08/27 07:56:47;;;;;;;1.80;0.70;;;19.60;72.40;;;;;;10504815;28;20611;-65
2021/08/27 08:02:09;;;;;;;0.77;0.47;;;19.60;72.50;;;;;;10494652;28;20208;-65
2021/08/27 08:07:33;;;;;;;1.80;0.60;;;19.60;72.90;;;;;;10501522;22;20303;-54
2021/08/27 08:12:56;;;;;;;0.90;0.67;;;19.60;73.10;;;;;;10486198;28;20203;-57
2021/08/27 08:18:18;;;;;;;1.43;0.60;;;19.60;72.20;;;;;;10500273;28;20224;-57
2021/08/27 08:23:41;;;;;;;0.50;0.50;;;19.60;72.80;;;;;;10512781;28;20207;-57
2021/08/27 08:29:05;;;;;;;0.60;0.60;;;19.60;73.10;;;;;;10508760;28;20228;-57
2021/08/27 08:34:27;;;;;;;0.60;0.47;;;19.60;72.70;;;;;;10496687;28;20223;-53
2021/08/27 08:39:50;;;;;;;0.60;0.50;;;19.60;72.40;;;;;;10472342;28;20225;-57
2021/08/27 08:45:13;;;;;;;0.80;0.57;;;19.60;72.80;;;;;;10496834;28;20297;-57
2021/08/27 08:50:36;;;;;;;0.67;0.50;;;19.60;73.10;;;;;;10496847;28;20188;-57
2021/08/27 08:55:59;;;;;;;0.60;0.40;;;19.60;72.00;;;;;;10499878;28;20219;-65
2021/08/27 09:01:21;;;;;;;1.20;0.50;;;19.60;72.80;;;;;;10534572;28;20204;-64
2021/08/27 09:06:44;;;;;;;0.50;0.43;;;19.60;73.00;;;;;;10537857;28;20224;-64
2021/08/27 09:12:19;;;;;;;1.10;0.60;;;19.60;73.00;;;;;;10496784;28;20196;-64
2021/08/27 09:17:43;;;;;;;0.90;0.70;;;19.70;72.80;;;;;;10496018;28;20431;-67
2021/08/27 09:23:07;;;;;;;0.77;0.50;;;20.00;71.90;;;;;;10496101;28;20189;-66
2021/08/27 09:28:30;;;;;;;3.90;0.70;;;19.80;72.30;;;;;;10496161;28;20209;-67
2021/08/27 09:33:58;;;;;;;1.07;0.57;;;19.80;71.30;;;;;;10486638;28;20204;-71
2021/08/27 09:39:20;;;;;;;2.40;0.75;;;19.70;72.00;;;;;;10488459;28;20423;-61
2021/08/27 09:44:53;;;;;;;1.03;0.77;;;19.90;72.20;;;;;;10489613;28;20567;-64
2021/08/27 09:50:27;;;;;;;1.50;0.70;;;19.80;71.70;;;;;;10481721;28;20196;-66
2021/08/27 09:55:57;;;;;;;4.80;0.93;;;19.80;71.70;;;;;;10483990;28;20491;-62
2021/08/27 10:01:22;;;;;;;5.70;0.97;;;20.30;70.90;;;;;;10498158;28;20188;-61
2021/08/27 10:06:47;;;;;;;3.00;0.90;;;20.00;71.90;;;;;;10453777;28;20209;-60
2021/08/27 10:12:10;;;;;;;4.10;0.88;;;19.90;71.10;;;;;;10473504;28;20441;-66
2021/08/27 10:17:35;;;;;;;2.93;0.87;;;20.20;70.30;;;;;;10494466;28;20219;-67
2021/08/27 10:22:57;;;;;;;2.37;0.50;;;19.90;71.50;;;;;;10489773;28;20793;-67
2021/08/27 10:28:20;;;;;;;1.27;0.67;;;19.80;72.30;;;;;;10492657;28;20687;-68
2021/08/27 10:34:05;;;;;;;1.93;0.43;;;19.70;71.60;;;;;;10492538;28;20197;-69
2021/08/27 10:39:51;;;;;;;0.80;0.53;;;19.70;70.00;;;;;;10492149;28;20219;-67
2021/08/27 10:45:14;;;;;;;1.20;0.63;;;19.70;71.80;;;;;;10491856;28;20418;-65
2021/08/27 10:50:38;;;;;;;1.52;0.70;;;20.20;70.60;;;;;;10491917;28;20411;-61
2021/08/27 10:56:04;;;;;;;0.80;0.50;;;20.40;69.50;;;;;;10507139;28;20231;-60
2021/08/27 11:01:27;;;;;;;2.20;0.50;;;20.10;69.80;;;;;;10494356;28;20494;-61
2021/08/27 11:06:53;;;;;;;1.70;0.80;;;19.90;71.20;;;;;;10491279;28;20239;-59
2021/08/27 11:12:16;;;;;;;2.90;0.83;;;19.80;71.90;;;;;;10492418;28;20676;-61
2021/08/27 11:17:40;;;;;;;2.40;0.80;;;19.80;72.30;;;;;;10491133;28;20220;-59
2021/08/27 11:23:04;;;;;;;2.22;1.02;;;19.80;70.60;;;;;;10490449;28;20423;-60
2021/08/27 11:28:27;;;;;;;0.60;0.57;;;20.20;69.90;;;;;;10493112;28;20560;-59
2021/08/27 11:33:53;;;;;;;1.47;0.63;;;20.00;70.90;;;;;;10492560;28;20203;-60
2021/08/27 11:39:17;;;;;;;1.67;0.77;;;19.80;71.70;;;;;;10492039;28;20224;-60
2021/08/27 11:44:42;;;;;;;1.33;0.60;;;19.80;72.20;;;;;;10492469;28;20192;-57
2021/08/27 11:50:07;;;;;;;0.93;0.70;;;19.80;71.60;;;;;;10492338;28;20687;-62
2021/08/27 11:55:31;;;;;;;0.83;0.50;;;19.80;70.30;;;;;;10497329;28;20235;-61
2021/08/27 12:00:54;;;;;;;1.20;0.77;;;19.90;71.10;;;;;;10486248;28;20781;-68
2021/08/27 12:06:19;;;;;;;0.70;0.60;;;20.20;70.50;;;;;;10487196;28;20220;-67
2021/08/27 12:11:43;;;;;;;1.50;0.83;;;20.00;71.80;;;;;;10490762;28;20200;-67
2021/08/27 12:17:05;;;;;;;0.90;0.60;;;19.90;71.20;;;;;;10486425;28;20247;-68
2021/08/27 12:22:29;;;;;;;1.73;0.70;;;19.80;70.40;;;;;;10489762;28;20219;-67
2021/08/27 12:27:55;;;;;;;0.97;0.70;;;19.80;70.10;;;;;;10496307;28;20220;-69
2021/08/27 12:33:18;;;;;;;2.47;0.70;;;19.80;69.80;;;;;;10494956;28;20192;-69
2021/08/27 12:38:40;;;;;;;0.57;0.50;;;19.80;69.50;;;;;;10497506;28;20216;-68
2021/08/27 12:44:09;;;;;;;1.53;0.67;;;19.90;70.50;;;;;;10498790;28;20334;-67
2021/08/27 12:49:32;;;;;;;1.27;0.70;;;19.80;71.30;;;;;;10497781;28;20717;-65
2021/08/27 12:54:54;;;;;;;1.17;0.70;;;19.70;72.10;;;;;;10510582;28;20231;-67
2021/08/27 13:00:22;;;;;;;1.07;0.53;;;19.70;72.90;;;;;;10498053;28;20203;-65
2021/08/27 13:05:46;;;;;;;0.67;0.50;;;19.70;73.40;;;;;;10481517;28;20303;-66
2021/08/27 13:11:10;;;;;;;1.00;0.50;;;19.70;71.70;;;;;;10477357;28;20571;-66
2021/08/27 13:16:37;;;;;;;1.00;0.60;;;19.70;71.50;;;;;;10495863;28;20764;-67
2021/08/27 13:22:09;;;;;;;0.67;0.60;;;19.80;70.20;;;;;;10495328;28;20200;-67
2021/08/27 13:27:33;;;;;;;0.50;0.33;;;19.80;69.80;;;;;;10495857;28;20224;-65
2021/08/27 13:33:00;;;;;;;0.70;0.50;;;19.80;69.70;;;;;;10496218;28;20568;-66
2021/08/27 13:38:22;;;;;;;1.40;0.67;;;19.80;70.80;;;;;;10495433;28;20588;-64
2021/08/27 13:43:44;;;;;;;0.50;0.50;;;19.80;71.60;;;;;;10496043;28;20193;-68
2021/08/27 13:49:08;;;;;;;1.17;0.60;;;19.70;72.00;;;;;;10496366;28;20231;-68
2021/08/27 13:54:30;;;;;;;1.63;0.50;;;19.70;72.40;;;;;;10514221;28;20659;-68
2021/08/27 13:59:52;;;;;;;1.00;0.60;;;19.70;72.30;;;;;;10509924;28;20199;-68
2021/08/27 14:10:28;;;;;;;1.37;0.70;;;19.80;70.00;;;;;;10492541;28;20240;-66
2021/08/27 14:15:51;;;;;;;1.70;0.70;;;19.90;70.30;;;;;;10489573;28;20234;-66
2021/08/27 14:21:13;;;;;;;0.90;0.50;;;19.80;70.60;;;;;;10453463;28;20696;-66
2021/08/27 14:26:36;;;;;;;0.73;0.40;;;19.80;71.20;;;;;;10453033;28;20221;-67
2021/08/27 14:32:00;;;;;;;0.80;0.40;;;19.80;72.20;;;;;;10422394;28;20193;-66
2021/08/27 14:37:22;;;;;;;1.40;0.60;;;19.70;72.60;;;;;;10434829;28;20282;-65
2021/08/27 14:42:46;;;;;;;0.60;0.50;;;19.70;72.80;;;;;;10453515;28;20200;-65
2021/08/27 14:48:08;;;;;;;1.87;0.50;;;19.70;73.00;;;;;;10451748;28;20224;-66
2021/08/27 14:53:31;;;;;;;1.13;0.60;;;19.70;73.30;;;;;;10451188;28;20248;-64
2021/08/27 14:58:54;;;;;;;0.40;0.40;;;19.70;73.60;;;;;;10441283;28;20599;-66
2021/08/27 15:04:16;;;;;;;0.90;0.70;;;19.70;72.10;;;;;;10449421;28;20746;-66
2021/08/27 15:09:39;;;;;;;0.93;0.60;;;19.80;70.80;;;;;;10449741;28;20221;-66
2021/08/27 15:15:02;;;;;;;1.10;0.70;;;19.80;70.20;;;;;;10445156;28;20691;-66
2021/08/27 15:20:28;;;;;;;1.70;0.70;;;19.90;69.70;;;;;;10451198;28;20219;-67
2021/08/27 15:25:50;;;;;;;0.73;0.67;;;19.90;69.30;;;;;;10444112;28;20765;-65
2021/08/27 15:31:14;;;;;;;1.57;0.90;;;19.90;70.50;;;;;;10449975;28;20603;-66
2021/08/27 15:36:36;;;;;;;1.10;0.70;;;19.80;71.50;;;;;;10450220;28;20217;-57
2021/08/27 15:41:58;;;;;;;1.80;0.87;;;19.80;72.00;;;;;;10451338;28;20193;-60
2021/08/27 15:47:22;;;;;;;0.70;0.60;;;19.70;72.30;;;;;;10451560;28;20217;-55
2021/08/27 15:52:44;;;;;;;0.70;0.70;;;19.70;72.50;;;;;;10443511;28;20194;-57
2021/08/27 15:58:06;;;;;;;2.03;0.73;;;19.70;72.60;;;;;;10420183;28;20236;-59
2021/08/27 16:03:30;;;;;;;0.90;0.60;;;19.70;73.20;;;;;;10459677;28;20664;-54
2021/08/27 16:08:52;;;;;;;1.63;0.83;;;19.70;73.50;;;;;;10458954;28;20715;-58
2021/08/27 16:14:14;;;;;;;0.90;0.70;;;19.70;73.50;;;;;;10459422;28;20189;-56
2021/08/27 16:19:38;;;;;;;1.60;0.83;;;19.70;74.20;;;;;;10458206;28;20296;-58
2021/08/27 16:25:00;;;;;;;0.97;0.67;;;19.70;73.60;;;;;;10457810;28;20197;-58
2021/08/27 16:30:22;;;;;;;1.80;0.93;;;19.70;73.30;;;;;;10423365;28;20695;-60
2021/08/27 16:35:46;;;;;;;0.60;0.60;;;19.70;73.70;;;;;;10456544;28;20220;-60
2021/08/27 16:41:08;;;;;;;0.93;0.77;;;19.70;73.20;;;;;;10457737;28;20208;-57
2021/08/27 16:46:30;;;;;;;1.10;0.53;;;19.80;72.70;;;;;;10457732;28;20228;-56
2021/08/27 16:51:53;;;;;;;0.53;0.53;;;19.80;73.00;;;;;;10455595;28;20193;-59
2021/08/27 16:57:15;;;;;;;1.00;0.90;;;19.70;73.30;;;;;;10454244;28;20233;-59
2021/08/27 17:02:38;;;;;;;0.50;0.50;;;19.80;72.30;;;;;;10457009;28;20693;-60
2021/08/27 17:08:01;;;;;;;1.50;0.50;;;19.80;72.80;;;;;;10453852;28;20228;-65
2021/08/27 17:13:23;;;;;;;0.70;0.70;;;19.70;73.20;;;;;;10452472;28;20572;-65
2021/08/27 17:18:45;;;;;;;1.17;0.73;;;19.80;72.30;;;;;;10455836;28;20820;-64
2021/08/27 17:24:09;;;;;;;0.80;0.70;;;19.80;72.70;;;;;;10455160;28;20204;-62
2021/08/27 17:29:31;;;;;;;0.87;0.67;;;19.80;73.10;;;;;;10435045;28;20218;-63
2021/08/27 17:34:53;;;;;;;0.90;0.80;;;19.80;72.90;;;;;;10416758;28;20194;-64
2021/08/27 17:40:17;;;;;;;0.70;0.60;;;19.80;72.70;;;;;;10454512;28;20214;-65
2021/08/27 17:45:39;;;;;;;0.73;0.70;;;19.70;73.00;;;;;;10455324;28;20251;-63
2021/08/27 17:51:01;;;;;;;0.60;0.60;;;19.70;73.20;;;;;;10453780;28;20204;-63
2021/08/27 17:56:24;;;;;;;0.67;0.67;;;19.80;72.80;;;;;;10454301;28;20744;-64
2021/08/27 18:01:46;;;;;;;0.40;0.40;;;19.80;73.10;;;;;;10448870;28;20794;-66
2021/08/27 18:07:09;;;;;;;0.70;0.70;;;19.80;73.10;;;;;;10454765;28;20740;-63
2021/08/27 18:12:32;;;;;;;0.80;0.60;;;19.80;72.50;;;;;;10446835;28;20201;-63
2021/08/27 18:17:55;;;;;;;1.43;0.93;;;19.80;73.50;;;;;;10454178;28;20221;-64
2021/08/27 18:23:19;;;;;;;2.17;0.63;;;19.80;73.20;;;;;;10452433;28;20238;-61
2021/08/27 18:28:42;;;;;;;0.77;0.67;;;19.80;72.60;;;;;;10450311;28;20229;-66
2021/08/27 18:34:05;;;;;;;0.83;0.60;;;19.80;73.20;;;;;;10452975;28;20568;-66
2021/08/27 18:39:27;;;;;;;0.80;0.60;;;19.80;73.40;;;;;;10451246;28;20600;-63
2021/08/27 18:44:50;;;;;;;0.87;0.70;;;19.80;72.80;;;;;;10447346;28;20201;-65
2021/08/27 18:50:13;;;;;;;1.47;0.70;;;19.80;73.30;;;;;;10446867;28;20833;-64
2021/08/27 18:55:35;;;;;;;0.95;0.82;;;19.80;73.30;;;;;;10444581;28;20432;-64
2021/08/27 19:00:58;;;;;;;1.57;0.70;;;20.30;71.10;;;;;;10416544;28;20628;-65
2021/08/27 19:06:21;;;;;;;0.67;0.67;;;20.00;72.20;;;;;;10405430;28;20228;-66
2021/08/27 19:11:43;;;;;;;0.93;0.60;;;19.90;72.60;;;;;;10422879;28;20208;-65
2021/08/27 19:17:06;;;;;;;1.63;0.60;;;19.90;72.50;;;;;;10445171;28;20225;-63
2021/08/27 19:22:28;;;;;;;1.30;0.70;;;19.80;73.00;;;;;;10444798;28;20193;-65
2021/08/27 19:27:50;;;;;;;3.10;0.90;;;19.80;73.20;;;;;;10432221;28;20675;-65
2021/08/27 19:33:14;;;;;;;1.73;0.70;;;19.80;72.70;;;;;;10427792;28;20200;-64
2021/08/27 19:38:36;;;;;;;0.50;0.50;;;19.80;73.10;;;;;;10444996;28;20224;-64
2021/08/27 19:43:58;;;;;;;3.13;0.90;;;19.80;73.30;;;;;;10449101;28;20695;-64
2021/08/27 19:49:22;;;;;;;2.40;0.80;;;19.80;72.70;;;;;;10446973;28;20202;-63
2021/08/27 19:54:44;;;;;;;3.23;1.10;;;19.80;73.20;;;;;;10448094;28;20197;-64
2021/08/27 20:00:08;;;;;;;2.90;0.77;;;19.80;73.40;;;;;;10444509;28;20217;-63
2021/08/27 20:05:31;;;;;;;2.63;1.10;;;19.80;72.00;;;;;;10446962;28;20656;-63
2021/08/27 20:10:53;;;;;;;1.83;0.80;;;19.80;72.60;;;;;;10447145;28;20185;-63
2021/08/27 20:16:15;;;;;;;2.93;0.70;;;19.80;73.10;;;;;;10499561;22;20220;-64
2021/08/27 20:21:39;;;;;;;3.40;0.83;;;19.80;72.50;;;;;;10485054;28;20300;-63
2021/08/27 20:27:01;;;;;;;3.63;0.90;;;19.80;72.70;;;;;;10423515;28;20193;-64
2021/08/27 20:32:23;;;;;;;4.73;1.00;;;19.80;73.10;;;;;;10423109;28;20226;-63
2021/08/27 20:37:47;;;;;;;1.13;0.70;;;19.80;72.80;;;;;;10422787;28;20245;-63
2021/08/27 20:43:09;;;;;;;1.43;0.87;;;19.80;72.60;;;;;;10423126;28;20214;-63
2021/08/27 20:48:31;;;;;;;1.30;0.67;;;19.80;73.00;;;;;;10442736;28;20193;-64
2021/08/27 20:53:55;;;;;;;4.47;0.97;;;19.80;73.10;;;;;;10456332;28;20224;-63
2021/08/27 20:59:17;;;;;;;3.20;0.80;;;19.80;72.00;;;;;;10437842;28;20217;-63
2021/08/27 21:04:39;;;;;;;2.73;0.80;;;19.80;72.50;;;;;;10419848;28;20212;-64
2021/08/27 21:10:04;;;;;;;1.07;0.50;;;19.70;73.00;;;;;;10456888;28;20196;-64
2021/08/27 21:15:26;;;;;;;1.33;0.70;;;19.80;72.70;;;;;;10456163;28;20229;-64
2021/08/27 21:20:50;;;;;;;1.60;0.50;;;19.80;72.30;;;;;;10453581;28;20217;-63
2021/08/27 21:26:14;;;;;;;1.03;0.57;;;19.80;72.70;;;;;;10447633;28;20209;-63
2021/08/27 21:31:36;;;;;;;2.53;0.80;;;19.70;73.10;;;;;;10451603;28;20197;-63
2021/08/27 21:36:58;;;;;;;1.47;0.70;;;19.80;72.00;;;;;;10455914;28;20220;-63
2021/08/27 21:42:22;;;;;;;2.73;0.60;;;19.80;72.50;;;;;;10448876;28;20217;-63
2021/08/27 21:47:44;;;;;;;1.83;0.60;;;19.70;73.00;;;;;;10445074;28;20216;-63
2021/08/27 21:53:06;;;;;;;2.10;0.57;;;19.70;72.70;;;;;;10424472;28;20224;-63
2021/08/27 21:58:30;;;;;;;1.03;0.70;;;19.70;72.30;;;;;;10453840;28;20798;-64
2021/08/27 22:03:52;;;;;;;1.03;0.50;;;19.70;72.70;;;;;;10453689;28;20584;-64
2021/08/27 22:09:14;;;;;;;2.23;0.90;;;19.70;73.10;;;;;;10440908;28;20193;-64
2021/08/27 22:14:38;;;;;;;1.63;0.80;;;19.80;72.10;;;;;;10439523;28;20224;-63
2021/08/27 22:20:00;;;;;;;0.73;0.60;;;19.70;72.50;;;;;;10442846;28;20217;-63
2021/08/27 22:25:22;;;;;;;1.00;0.60;;;19.70;72.90;;;;;;10443139;28;20220;-62
2021/08/27 22:30:46;;;;;;;2.23;0.83;;;19.70;72.90;;;;;;10433141;28;20204;-64
2021/08/27 22:36:08;;;;;;;0.73;0.50;;;19.80;72.30;;;;;;10452143;28;20224;-64
2021/08/27 22:41:30;;;;;;;1.20;0.40;;;19.70;72.70;;;;;;10435179;28;20695;-63
2021/08/27 22:46:54;;;;;;;0.80;0.60;;;19.70;73.10;;;;;;10439909;28;20185;-63
2021/08/27 22:52:16;;;;;;;0.73;0.43;;;19.70;72.30;;;;;;10423430;28;20685;-63
2021/08/27 22:57:39;;;;;;;1.23;0.43;;;19.70;72.40;;;;;;10425365;28;20216;-63
2021/08/27 23:03:02;;;;;;;1.53;0.60;;;19.70;72.90;;;;;;10435625;28;20221;-63
2021/08/27 23:08:24;;;;;;;0.80;0.60;;;19.70;73.00;;;;;;10451190;28;20201;-62
2021/08/27 23:13:46;;;;;;;0.63;0.50;;;19.70;72.30;;;;;;10450746;28;20718;-64
2021/08/27 23:19:10;;;;;;;0.57;0.50;;;19.70;72.80;;;;;;10439333;28;20209;-64
2021/08/27 23:24:32;;;;;;;1.33;0.60;;;19.60;73.20;;;;;;10450066;28;20231;-63
2021/08/27 23:29:54;;;;;;;1.53;0.67;;;19.60;72.70;;;;;;10410918;28;20194;-63
2021/08/27 23:35:18;;;;;;;0.50;0.40;;;19.70;72.50;;;;;;10438806;28;20691;-64
2021/08/27 23:40:40;;;;;;;1.13;0.50;;;19.60;72.90;;;;;;10470941;28;20212;-64
2021/08/27 23:46:02;;;;;;;1.50;0.50;;;19.60;73.30;;;;;;10454649;28;20209;-63
2021/08/27 23:51:25;;;;;;;0.57;0.50;;;19.60;72.20;;;;;;10491278;28;20211;-62
2021/08/27 23:56:47;;;;;;;1.00;0.50;;;19.60;72.70;;;;;;10450660;28;20235;-63
